LEASLEVX

Guest
Details From LEAS - Asturias
To LEVX - Vigo
Flight Number -
Tags generated
Created
Modified
Stats Distance 139 nm / 258 km
Max Altitude 14,900 ft / 4,542 m
Waypoints 3
Social Downloads 5
Likes 0
Share VATSIM

Download

Looking for another format? Having issues loading an existing format? Contact us
Advertisement - Login to hide

Notes

Basic altitude profile: - Ascent Rate: 2500ft/min - Ascent Speed: 250kts - Cruise Altitude: 35000ft - Cruise Speed: 420kts - Descent Rate: 1500ft/min - Descent Speed: 250kts Options: - Use NATs: yes - Use PACOTS: yes - Use low airways: yes - Use high airways: yes

Route

LEAS LOMDA LEVX

ID Type Via Altitude Latitude Longitude Leg Dist Tot Dist Heading (true) Name
O LEAS APT - 0 ft / 0 m 43.56350˚ -6.03467˚ - 0 nm - Asturias
LOMDA FIX - 14,900 ft / 4,542 m 42.85280˚ -7.29602˚ 69 nm 69 nm 233° / 232° -
O LEVX APT - 0 ft / 0 m 42.23189˚ -8.62677˚ 69 nm 139 nm 238° / 237° Vigo

Altitude Profile

Advertisement - Login to hide

LEAS

Details ICAO LEAS (OVD)
Name Asturias
Region Spain
Timezone Europe/Madrid (UTC+1.0)
Stats Elevation 416 ft / 127 m (AMSL)
Location 43.563496° -6.034670°
Runways 1
Magnetic Variation 1.628° W

METAR

LEAS 151030Z 27010KT 9000 SCT025 SCT040 10/06 Q1015 NOSIG

Decode

TAF

TAF LEAS 150800Z 1509/1609 32012KT 9999 SCT025 BKN035 TX12/1515Z TN06/1607Z TEMPO 1509/1523 29016G28KT TEMPO 1509/1609 3000 RA BKN010 PROB30 TEMPO 1509/1609 3000 SHRA SCT030TCU

Decode

Departure Runways

ID Width Length Bearing (true) Bearing (mag) Surface Threshold Offset Overrun Length
11 148 ft / 45 m 7,216 ft / 2,200 m 108.09° 109.72° Asphalt 0 ft / 0 m 164 ft / 50 m
29 148 ft / 45 m 7,216 ft / 2,200 m 288.10° 289.73° Asphalt 0 ft / 0 m 164 ft / 50 m

LEVX

Details ICAO LEVX (VGO)
Name Vigo
Region Spain
Timezone Europe/Madrid (UTC+1.0)
Stats Elevation 855 ft / 261 m (AMSL)
Location 42.231894° -8.626774°
Runways 1
Magnetic Variation 2.390° W

METAR

LEVX 151030Z 01005KT 330V060 9999 FEW054 09/06 Q1017 NOSIG

Decode

TAF

TAF AMD LEVX 150627Z 1506/1606 32005KT 8000 SCT005 BKN035 TX11/1514Z TN06/1506Z PROB40 TEMPO 1506/1509 0800 RADZ BCFG BKN002 BKN005 PROB30 TEMPO 1506/1509 0350 FG VV001

Decode

Destination Runways

ID Width Length Bearing (true) Bearing (mag) Surface Threshold Offset Overrun Length
02 148 ft / 45 m 7,905 ft / 2,409 m 11.38° 13.77° Asphalt 0 ft / 0 m 164 ft / 50 m
20 148 ft / 45 m 7,905 ft / 2,409 m 191.38° 193.77° Asphalt 0 ft / 0 m 164 ft / 50 m

Approach Navaids

Runway Type Ident Frequency Range Bearing (true) Bearing (mag) Slope Elevation
20 Localiser VIG 110.90 MHz 18 nm / 33 km 191.38° 193.77° - 855 ft / 261 m (AMSL)
20 Glidescope VIG 110.90 MHz 10 nm / 19 km 191.38° 193.77° 3.00° 855 ft / 261 m (AMSL)
20 DME VIG 110.90 MHz 18 nm / 33 km - - - 833 ft / 254 m (AMSL)

Popular Alternatives